Dawn, TX (79025)

7:19 PM CDT on July 27, 2016 (GMT -0500)
Rural | | Change Station

Elev 3842 ft 34.93 °N, 102.27 °W | Updated 0 second ago

Clear
Clear
88.2 °F
Feels Like 86 °F
N
5.1
Wind Variable Wind from SSW
Gusts 7.4 mph

Today
High -- | Low -- °F
--% Chance of Precip.
Yesterday
High -- | Low -- °F
Precip. -- in
Pressure 30.05 in
Visibility 10.0 miles
Clouds Clear
Heat Index 86 °F
Dew Point 53 °F
Humidity 30%
Rainfall 0.00 in
Snow Depth Not available.
6:55 AM 8:55 PM
Last Quarter, 38% visible
METAR KHRX 280015Z AUTO 19006KT 10SM CLR 33/11 A3005 RMK AO2 T03250108
Pressure 30.05 in
Visibility 10.0 miles
Clouds Clear
Heat Index 86 °F
Dew Point 53 °F
Humidity 30%
Rainfall 0.00 in
Snow Depth Not available.
6:55 AM 8:55 PM
Last Quarter, 38% visible
METAR KHRX 280015Z AUTO 19006KT 10SM CLR 33/11 A3005 RMK AO2 T03250108

10-Day Weather Forecast

Almanac

Astronomy

Jul. 27, 2016 Rise Set
Actual Time
Civil Twilight
Nautical Twilight
Astronomical Twilight
Moon
Length of Visible Light
Length of Day
Tomorrow will be .
, % of the Moon is Illuminated

Today's Extremes

State Highs State Lows

Community

WunderPhotos

Upload Photos

1,927,974 photos uploaded!

WunderBlog® & News

Nearby

Air Quality

  Air Quality AQ Index Pollutant
Not available.

Snow Depth

Station Depth Elevation

Earthquake Activity

City Distance Mag. Time & Date
Minimum magnitude displayed is 2.5.

Coastal Water Temperatures

Place Temperature

Stations

Nearby Weather Stations

Station Location Temp. Windchill Dew Point Humidity Wind Precip. Elev Updated Type
                   

Watches & Warnings

There are currently no watches in effect.